Terminal Aerodrome Forecast
Issued by NWS Greer, SC

Home | Current Version | Previous Version | Text Only | Print | Product List | Glossary On
Versions: 1 2 3 4 5 6 7 8 9 10 11 12 13 14 15 16 17 18 19 20 21 22 23 24 25 26 27 28 29 30 31 32 33
000
FTUS42 KGSP 311100
TAFAVL
TAF
KAVL 311124Z 3112/0112 34007KT P6SM FEW060 SCT080 BKN250
     FM311800 18005KT P6SM VCTS OVC035CB
     FM010300 16003KT P6SM VCSH OVC012
     FM010500 00000KT 6SM -SHRA BR OVC008
     FM010900 00000KT 5SM -SHRA BR OVC004=

USA.gov is the U.S. government's official web portal to all federal, state and local government web resources and services.